createdAt,value
2019-01-05T00:02:38.295Z,1.36
2019-01-05T00:05:28.794Z,1.39
2019-01-05T00:08:16.738Z,1.48
2019-01-05T00:11:11.865Z,1.58
2019-01-05T00:14:13.106Z,1.58
2019-01-05T00:16:55.155Z,1.65
2019-01-05T00:19:57.001Z,1.70
2019-01-05T00:22:52.921Z,1.70
2019-01-05T00:25:42.360Z,1.74
2019-01-05T00:28:43.034Z,1.76
2019-01-05T00:31:31.008Z,1.75
2019-01-05T00:34:32.578Z,1.75
2019-01-05T00:37:29.511Z,1.76
2019-01-05T00:40:20.540Z,1.76
2019-01-05T00:43:08.898Z,1.77
2019-01-05T00:46:17.824Z,1.75
2019-01-05T00:49:14.963Z,1.79
2019-01-05T00:51:57.567Z,1.69
2019-01-05T00:54:50.604Z,1.75
2019-01-05T00:57:47.304Z,1.78
2019-01-05T01:00:35.037Z,1.83
2019-01-05T01:03:30.462Z,1.84
2019-01-05T01:06:38.022Z,1.84
2019-01-05T01:09:25.866Z,1.89
2019-01-05T01:12:18.298Z,1.92
2019-01-05T01:15:06.374Z,2.01
2019-01-05T01:18:10.937Z,2.00
2019-01-05T01:21:00.506Z,2.00
2019-01-05T01:23:48.569Z,2.02
2019-01-05T01:26:36.884Z,2.02
2019-01-05T01:29:41.781Z,2.06
2019-01-05T01:32:31.111Z,2.00
2019-01-05T01:35:20.557Z,2.01
2019-01-05T01:38:48.677Z,2.05
2019-01-05T01:41:50.259Z,2.05
2019-01-05T01:44:40.285Z,2.00
2019-01-05T01:47:45.988Z,2.03
2019-01-05T01:50:36.099Z,2.03
2019-01-05T01:53:43.293Z,2.08
2019-01-05T01:56:48.918Z,2.05
2019-01-05T02:00:06.744Z,2.05
2019-01-05T02:02:53.924Z,2.09
2019-01-05T02:05:45.060Z,1.20
2019-01-05T02:08:40.941Z,1.20
2019-01-05T02:11:30.776Z,2.00
2019-01-05T02:14:29.887Z,2.04
2019-01-05T02:17:33.854Z,2.05
2019-01-05T02:20:57.947Z,2.05
2019-01-05T02:24:35.216Z,1.20
2019-01-05T02:28:19.814Z,1.20
2019-01-05T02:31:51.608Z,2.07
2019-01-05T02:35:26.730Z,2.07
2019-01-05T02:38:56.700Z,2.06
2019-01-05T02:42:08.125Z,2.02
2019-01-05T02:45:59.247Z,1.98
2019-01-05T02:49:17.520Z,2.00
2019-01-05T02:52:54.142Z,2.00
2019-01-05T02:56:29.319Z,2.00
2019-01-05T02:59:58.520Z,1.95
2019-01-05T03:03:12.670Z,1.94
2019-01-05T03:07:02.010Z,1.95
2019-01-05T03:10:58.370Z,1.80
2019-01-05T03:14:41.033Z,1.80
2019-01-05T03:18:05.103Z,1.73
2019-01-05T03:21:44.813Z,1.47
2019-01-05T03:25:41.222Z,1.42
2019-01-05T03:29:00.423Z,1.45
2019-01-05T03:32:50.188Z,1.32
2019-01-05T03:36:04.130Z,1.25
2019-01-05T03:39:38.337Z,1.20
2019-01-05T03:42:50.166Z,1.10
2019-01-05T03:46:06.383Z,1.07
2019-01-05T03:49:30.516Z,1.00
2019-01-05T03:53:04.921Z,0.95
2019-01-05T03:56:37.770Z,1.03
2019-01-05T04:00:21.255Z,1.01
2019-01-05T04:04:29.962Z,0.99
2019-01-05T04:07:58.195Z,1.01
2019-01-05T04:11:25.054Z,0.95
2019-01-05T04:14:54.535Z,0.97
2019-01-05T04:18:24.378Z,0.98
2019-01-05T04:22:14.805Z,0.98
2019-01-05T04:25:31.427Z,0.81
2019-01-05T04:29:28.458Z,0.90
2019-01-05T04:33:15.600Z,0.93
2019-01-05T04:36:52.090Z,0.90
2019-01-05T04:40:24.522Z,0.89
2019-01-05T04:44:15.469Z,0.80
2019-01-05T04:47:32.900Z,0.75
2019-01-05T04:51:11.817Z,0.81
2019-01-05T04:55:08.719Z,0.78
2019-01-05T04:58:37.671Z,0.83
2019-01-05T05:02:27.161Z,0.87
2019-01-05T05:05:49.535Z,0.89
2019-01-05T05:09:25.800Z,0.94
2019-01-05T05:12:52.409Z,0.97
2019-01-05T05:16:25.634Z,0.99
2019-01-05T05:19:50.896Z,1.04
2019-01-05T05:23:13.729Z,1.07
2019-01-05T05:26:57.350Z,1.08
2019-01-05T05:30:32.240Z,0.99
2019-01-05T05:33:56.350Z,1.00
2019-01-05T05:37:17.783Z,1.04
2019-01-05T05:41:01.340Z,0.99
2019-01-05T05:44:41.051Z,0.99
2019-01-05T05:48:47.088Z,0.97
2019-01-05T05:52:13.886Z,0.95
2019-01-05T05:55:37.751Z,1.00
2019-01-05T05:59:05.363Z,1.00
2019-01-05T06:02:41.959Z,0.93
2019-01-05T06:06:16.130Z,0.86
2019-01-05T06:09:40.999Z,1.00
2019-01-05T06:12:52.856Z,1.01
2019-01-05T06:16:21.715Z,0.73
2019-01-05T06:19:56.038Z,0.61
2019-01-05T06:23:43.497Z,0.39
2019-01-05T06:27:21.256Z,0.55
2019-01-05T06:30:49.864Z,0.62
2019-01-05T06:34:14.936Z,0.73
2019-01-05T06:37:55.640Z,0.66
2019-01-05T06:41:42.911Z,0.72
2019-01-05T06:45:36.472Z,0.79
2019-01-05T06:49:03.474Z,0.79
2019-01-05T06:52:42.483Z,0.72
2019-01-05T06:56:06.078Z,0.81
2019-01-05T06:59:48.775Z,0.75
2019-01-05T07:03:21.466Z,0.87
2019-01-05T07:07:00.517Z,0.88
2019-01-05T07:10:44.981Z,0.86
2019-01-05T07:14:23.331Z,0.94
2019-01-05T07:18:13.903Z,1.03
2019-01-05T07:21:42.208Z,0.79
2019-01-05T07:25:15.295Z,0.86
2019-01-05T07:28:34.386Z,0.75
2019-01-05T07:32:22.493Z,0.98
2019-01-05T07:36:11.529Z,1.09
2019-01-05T07:39:54.711Z,1.04
2019-01-05T07:43:26.321Z,0.96
2019-01-05T07:47:01.726Z,1.16
2019-01-05T07:50:24.570Z,1.15
2019-01-05T07:53:42.627Z,1.22
2019-01-05T07:57:14.627Z,1.29
2019-01-05T08:00:41.987Z,1.37
2019-01-05T08:04:13.131Z,1.37
2019-01-05T08:07:45.677Z,1.33
2019-01-05T08:11:26.315Z,1.34
2019-01-05T08:15:19.943Z,1.36
2019-01-05T08:18:52.164Z,1.48
2019-01-05T08:22:33.503Z,1.45
2019-01-05T08:26:15.180Z,1.45
2019-01-05T08:29:43.479Z,1.66
2019-01-05T08:33:26.298Z,1.70
2019-01-05T08:37:08.797Z,1.90
2019-01-05T08:40:51.140Z,1.91
2019-01-05T08:44:37.612Z,1.97
2019-01-05T08:48:01.525Z,1.80
2019-01-05T08:51:37.466Z,1.80
2019-01-05T08:55:04.448Z,1.80
2019-01-05T08:58:53.717Z,1.93
2019-01-05T09:02:23.187Z,2.11
2019-01-05T09:05:59.901Z,2.11
2019-01-05T09:09:20.364Z,2.08
2019-01-05T09:12:48.759Z,2.28
2019-01-05T09:16:47.375Z,2.41
2019-01-05T09:20:17.336Z,2.41
2019-01-05T09:24:03.794Z,2.52
2019-01-05T09:27:41.864Z,2.52
2019-01-05T09:31:19.636Z,2.42
2019-01-05T09:34:51.040Z,2.59
2019-01-05T09:38:16.309Z,2.53
2019-01-05T09:41:43.333Z,2.72
2019-01-05T09:45:21.099Z,2.72
2019-01-05T09:49:02.466Z,2.79
2019-01-05T09:52:34.535Z,2.62
2019-01-05T09:56:20.605Z,2.70
2019-01-05T09:59:47.317Z,2.67
2019-01-05T10:03:17.314Z,2.88
2019-01-05T10:06:50.219Z,3.02
2019-01-05T10:10:27.225Z,2.99
2019-01-05T10:14:06.576Z,3.01
2019-01-05T10:17:47.185Z,2.94
2019-01-05T10:21:19.109Z,2.89
2019-01-05T10:24:58.517Z,2.95
2019-01-05T10:28:34.416Z,2.85
2019-01-05T10:32:37.500Z,2.90
2019-01-05T10:36:31.733Z,3.00
2019-01-05T10:39:54.902Z,3.07
2019-01-05T10:43:14.514Z,3.22
2019-01-05T10:46:45.392Z,3.16
2019-01-05T10:50:19.611Z,3.06
2019-01-05T10:53:47.420Z,3.06
2019-01-05T10:57:11.584Z,3.01
2019-01-05T11:01:09.284Z,3.12
2019-01-05T11:04:52.251Z,3.18
2019-01-05T11:08:29.582Z,3.20
2019-01-05T11:12:19.363Z,3.09
2019-01-05T11:15:43.647Z,2.98
2019-01-05T11:19:31.410Z,2.75
2019-01-05T11:23:06.681Z,3.10
2019-01-05T11:26:46.742Z,2.96
2019-01-05T11:30:17.040Z,3.02
2019-01-05T11:34:14.175Z,2.87
2019-01-05T11:37:55.294Z,3.01
2019-01-05T11:41:39.795Z,3.19
2019-01-05T11:45:02.801Z,3.39
2019-01-05T11:48:23.589Z,3.19
2019-01-05T11:51:59.622Z,3.36
2019-01-05T11:55:24.149Z,3.35
2019-01-05T11:58:54.120Z,3.34
2019-01-05T12:02:19.731Z,3.41
2019-01-05T12:05:57.266Z,3.40
2019-01-05T12:09:45.186Z,3.63
2019-01-05T12:13:21.375Z,3.66
2019-01-05T12:16:51.778Z,3.71
2019-01-05T12:20:40.111Z,3.77
2019-01-05T12:24:42.939Z,3.77
2019-01-05T12:28:10.337Z,3.94
2019-01-05T12:32:07.959Z,4.02
2019-01-05T12:35:31.816Z,3.89
2019-01-05T12:39:01.719Z,3.98
2019-01-05T12:42:37.221Z,4.15
2019-01-05T12:46:18.818Z,4.04
2019-01-05T12:49:42.928Z,3.86
2019-01-05T12:53:25.508Z,3.84
2019-01-05T12:56:55.420Z,3.77
2019-01-05T13:00:29.023Z,3.69
2019-01-05T13:04:06.290Z,3.49
2019-01-05T13:07:21.191Z,3.44
2019-01-05T13:10:50.163Z,3.62
2019-01-05T13:14:19.951Z,3.29
2019-01-05T13:17:44.738Z,3.28
2019-01-05T13:21:23.312Z,3.43
2019-01-05T13:25:09.063Z,3.42
2019-01-05T13:28:41.311Z,3.47
2019-01-05T13:32:28.870Z,3.53
2019-01-05T13:36:03.213Z,3.30
2019-01-05T13:39:33.206Z,3.40
2019-01-05T13:43:02.719Z,3.49
2019-01-05T13:46:40.303Z,3.61
2019-01-05T13:50:04.833Z,3.48
2019-01-05T13:53:14.606Z,3.44
2019-01-05T13:56:11.336Z,3.44
2019-01-05T13:59:15.506Z,3.41
2019-01-05T14:02:10.637Z,3.45
2019-01-05T14:04:59.837Z,3.49
2019-01-05T14:08:06.791Z,3.46
2019-01-05T14:10:54.666Z,3.47
2019-01-05T14:13:42.352Z,3.48
2019-01-05T14:16:30.251Z,3.47
2019-01-05T14:19:34.676Z,3.50
2019-01-05T14:22:22.479Z,3.58
2019-01-05T14:25:10.209Z,3.62
2019-01-05T14:27:58.124Z,3.61
2019-01-05T14:30:47.382Z,3.56
2019-01-05T14:33:43.733Z,3.58
2019-01-05T14:36:36.076Z,3.58
2019-01-05T14:39:25.496Z,3.61
2019-01-05T14:42:14.742Z,3.44
2019-01-05T14:45:02.407Z,3.51
2019-01-05T14:47:50.299Z,3.41
2019-01-05T14:50:57.433Z,3.45
2019-01-05T14:53:49.430Z,3.43
2019-01-05T14:56:38.598Z,3.40
2019-01-05T14:59:27.834Z,3.39
2019-01-05T15:02:19.935Z,3.42
2019-01-05T15:05:09.418Z,3.42
2019-01-05T15:08:07.687Z,3.46
2019-01-05T15:11:11.823Z,3.42
2019-01-05T15:14:15.977Z,3.39
2019-01-05T15:17:08.143Z,3.41
2019-01-05T15:19:55.861Z,3.37
2019-01-05T15:22:43.747Z,3.37
2019-01-05T15:25:43.602Z,3.38
2019-01-05T15:28:31.359Z,3.35
2019-01-05T15:31:20.149Z,3.29
2019-01-05T15:34:15.404Z,3.30
2019-01-05T15:37:12.014Z,3.29
2019-01-05T15:40:11.129Z,3.29
2019-01-05T15:43:15.589Z,3.23
2019-01-05T15:46:19.525Z,3.22
2019-01-05T15:49:07.104Z,3.10
2019-01-05T15:51:54.816Z,3.12
2019-01-05T15:54:55.879Z,3.12
2019-01-05T15:57:50.974Z,3.06
2019-01-05T16:00:55.116Z,3.03
2019-01-05T16:03:42.854Z,2.97
2019-01-05T16:06:34.976Z,2.97
2019-01-05T16:09:41.196Z,2.92
2019-01-05T16:12:28.846Z,2.89
2019-01-05T16:15:14.190Z,2.89
2019-01-05T16:18:02.160Z,2.85
2019-01-05T16:20:50.010Z,2.79
2019-01-05T16:23:39.327Z,2.79
2019-01-05T16:26:26.997Z,2.69
2019-01-05T16:29:14.667Z,2.69
2019-01-05T16:32:22.365Z,2.59
2019-01-05T16:35:11.721Z,2.59
2019-01-05T16:38:10.567Z,2.53
2019-01-05T16:40:59.759Z,2.47
2019-01-05T16:43:52.048Z,2.40
2019-01-05T16:46:41.248Z,2.29
2019-01-05T16:49:29.082Z,2.26
2019-01-05T16:52:18.297Z,2.17
2019-01-05T16:55:10.608Z,2.13
2019-01-05T16:57:58.467Z,2.07
2019-01-05T17:00:56.118Z,2.00
2019-01-05T17:03:47.436Z,1.92
2019-01-05T17:06:39.440Z,1.86
2019-01-05T17:09:34.886Z,1.81
2019-01-05T17:12:19.295Z,1.77
2019-01-05T17:15:03.634Z,1.71
2019-01-05T17:17:51.606Z,1.67
2019-01-05T17:20:39.498Z,1.60
2019-01-05T17:23:37.579Z,1.53
2019-01-05T17:26:26.806Z,1.48
2019-01-05T17:29:34.155Z,1.44
2019-01-05T17:32:38.543Z,1.39
2019-01-05T17:35:33.721Z,1.36
2019-01-05T17:38:21.613Z,1.33
2019-01-05T17:41:10.809Z,1.30
2019-01-05T17:43:58.689Z,1.23
2019-01-05T17:46:53.842Z,1.19
2019-01-05T17:49:41.554Z,1.12
2019-01-05T17:52:27.307Z,1.07
2019-01-05T17:55:14.871Z,0.97
2019-01-05T17:58:16.318Z,0.84
2019-01-05T18:01:03.981Z,0.82
2019-01-05T18:03:58.738Z,0.80
2019-01-05T18:06:48.035Z,0.78
2019-01-05T18:09:35.622Z,0.70
2019-01-05T18:12:24.901Z,0.66
2019-01-05T18:15:14.122Z,0.63
2019-01-05T18:18:06.267Z,0.59
2019-01-05T18:21:04.534Z,0.58
2019-01-05T18:23:47.121Z,0.54
2019-01-05T18:26:34.910Z,0.49
2019-01-05T18:29:22.834Z,0.43
2019-01-05T18:32:20.887Z,0.42
2019-01-05T18:35:08.112Z,0.18
2019-01-05T18:37:57.364Z,0.08
2019-01-05T18:40:44.987Z,0.05
2019-01-05T18:43:37.337Z,0.01
2019-01-05T18:46:41.803Z,-0.18
2019-01-05T18:49:29.453Z,-0.11
2019-01-05T18:52:25.183Z,0.02
2019-01-05T18:55:13.515Z,0.08
2019-01-05T18:58:05.800Z,0.16
2019-01-05T19:00:53.735Z,0.11
2019-01-05T19:03:41.424Z,0.12
2019-01-05T19:06:39.823Z,0.08
2019-01-05T19:09:29.123Z,-0.01
2019-01-05T19:12:27.093Z,0.02
2019-01-05T19:15:14.788Z,0.07
2019-01-05T19:18:09.976Z,0.16
2019-01-05T19:21:04.970Z,0.18
2019-01-05T19:24:03.412Z,0.05
2019-01-05T19:26:47.516Z,0.10
2019-01-05T19:29:35.180Z,0.09
2019-01-05T19:32:24.937Z,0.05
2019-01-05T19:35:12.544Z,-0.09
2019-01-05T19:38:04.801Z,-0.06
2019-01-05T19:40:52.762Z,-0.11
2019-01-05T19:43:50.955Z,-0.13
2019-01-05T19:46:55.110Z,-0.17
2019-01-05T19:49:42.896Z,-0.14
2019-01-05T19:52:30.423Z,-0.22
2019-01-05T19:55:17.990Z,-0.16
2019-01-05T19:58:05.643Z,-0.21
2019-01-05T20:00:46.347Z,-0.29
2019-01-05T20:03:34.224Z,-0.30
2019-01-05T20:06:28.752Z,-0.27
2019-01-05T20:09:20.704Z,-0.33
2019-01-05T20:12:08.419Z,-0.46
2019-01-05T20:15:03.607Z,-0.52
2019-01-05T20:18:05.656Z,-0.59
2019-01-05T20:20:54.864Z,-0.57
2019-01-05T20:23:47.148Z,-0.58
2019-01-05T20:26:28.488Z,-0.80
2019-01-05T20:29:16.505Z,-0.58
2019-01-05T20:32:04.420Z,-0.74
2019-01-05T20:34:59.513Z,-0.86
2019-01-05T20:37:47.104Z,-0.76
2019-01-05T20:40:48.520Z,-0.68
2019-01-05T20:43:37.727Z,-0.61
2019-01-05T20:46:32.976Z,-0.64
2019-01-05T20:49:20.955Z,-0.58
2019-01-05T20:52:19.207Z,-0.75
2019-01-05T20:55:06.857Z,-0.74
2019-01-05T20:57:53.830Z,-0.71
2019-01-05T21:00:46.071Z,-0.74
2019-01-05T21:03:44.207Z,-0.74
2019-01-05T21:06:39.583Z,-0.71
2019-01-05T21:09:29.184Z,-0.59
2019-01-05T21:12:31.899Z,-0.65
2019-01-05T21:15:27.100Z,-0.75
2019-01-05T21:18:17.031Z,-0.75
2019-01-05T21:21:04.750Z,-0.69
2019-01-05T21:24:16.096Z,-0.81
2019-01-05T21:27:03.936Z,-0.89
2019-01-05T21:30:28.939Z,-0.88
2019-01-05T21:33:27.521Z,-0.92
2019-01-05T21:36:46.970Z,-1.07
2019-01-05T21:39:38.278Z,-1.05
2019-01-05T21:42:26.143Z,-0.92
2019-01-05T21:45:29.026Z,-1.11
2019-01-05T21:48:24.026Z,-1.02
2019-01-05T21:51:16.085Z,-1.13
2019-01-05T21:54:05.355Z,-1.07
2019-01-05T21:56:54.593Z,-1.19
2019-01-05T21:59:42.269Z,-1.13
2019-01-05T22:02:29.916Z,-1.29
2019-01-05T22:05:16.030Z,-1.17
2019-01-05T22:08:05.200Z,-1.24
2019-01-05T22:10:52.804Z,-1.20
2019-01-05T22:13:45.432Z,-1.26
2019-01-05T22:16:52.648Z,-1.39
2019-01-05T22:19:50.820Z,-1.28
2019-01-05T22:22:38.231Z,-1.33
2019-01-05T22:25:39.338Z,-1.24
2019-01-05T22:28:27.774Z,-1.26
2019-01-05T22:31:15.753Z,-1.47
2019-01-05T22:34:03.442Z,-2.10
2019-01-05T22:37:11.011Z,-1.36
2019-01-05T22:39:58.957Z,-1.27
2019-01-05T22:42:48.135Z,-1.45
2019-01-05T22:45:40.461Z,-1.40
2019-01-05T22:48:29.676Z,-1.57
2019-01-05T22:51:17.547Z,-1.45
2019-01-05T22:54:15.926Z,-1.70
2019-01-05T22:57:07.969Z,-1.60
2019-01-05T22:59:55.820Z,-1.59
2019-01-05T23:02:43.784Z,-1.50
2019-01-05T23:05:32.996Z,-1.49
2019-01-05T23:08:28.088Z,-1.53
2019-01-05T23:11:17.292Z,-1.67
2019-01-05T23:14:05.223Z,-1.61
2019-01-05T23:16:53.124Z,-1.49
2019-01-05T23:19:45.336Z,-1.60
2019-01-05T23:22:44.841Z,-1.64
2019-01-05T23:25:34.045Z,-1.90
2019-01-05T23:28:23.255Z,-1.91
2019-01-05T23:31:27.429Z,-1.89
2019-01-05T23:34:09.159Z,-1.98
2019-01-05T23:37:16.630Z,-2.01
2019-01-05T23:40:10.454Z,-2.06
2019-01-05T23:42:58.305Z,-2.00
2019-01-05T23:45:51.432Z,-1.96
2019-01-05T23:48:49.594Z,-2.03
2019-01-05T23:51:38.828Z,-1.98
2019-01-05T23:54:26.898Z,-1.97
2019-01-05T23:57:30.499Z,-1.88
